createdAt,value
2023-11-20T00:02:20.057Z,88.31
2023-11-20T00:04:48.179Z,88.36
2023-11-20T00:07:16.069Z,88.34
2023-11-20T00:09:43.913Z,88.32
2023-11-20T00:12:11.911Z,88.32
2023-11-20T00:14:39.723Z,88.34
2023-11-20T00:17:07.517Z,88.30
2023-11-20T00:19:35.365Z,88.33
2023-11-20T00:22:03.453Z,88.37
2023-11-20T00:24:31.452Z,88.33
2023-11-20T00:26:59.387Z,88.31
2023-11-20T00:29:27.493Z,88.31
2023-11-20T00:31:55.374Z,88.30
2023-11-20T00:34:23.464Z,88.27
2023-11-20T00:36:51.287Z,88.21
2023-11-20T00:39:20.723Z,88.17
2023-11-20T00:41:48.525Z,88.17
2023-11-20T00:44:16.426Z,88.17
2023-11-20T00:46:44.347Z,88.19
2023-11-20T00:49:12.326Z,88.20
2023-11-20T00:51:40.160Z,88.17
2023-11-20T00:54:08.332Z,88.18
2023-11-20T00:56:36.116Z,88.19
2023-11-20T00:59:04.456Z,88.16
2023-11-20T01:01:36.813Z,88.16
2023-11-20T01:04:05.460Z,88.15
2023-11-20T01:06:40.315Z,88.13
2023-11-20T01:09:08.541Z,88.12
2023-11-20T01:11:37.914Z,88.10
2023-11-20T01:14:07.321Z,88.12
2023-11-20T01:16:35.135Z,88.12
2023-11-20T01:19:03.152Z,88.12
2023-11-20T01:21:31.085Z,88.09
2023-11-20T01:23:59.096Z,88.11
2023-11-20T01:26:26.891Z,88.12
2023-11-20T01:28:54.792Z,88.14
2023-11-20T01:31:22.756Z,88.12
2023-11-20T01:33:50.630Z,88.12
2023-11-20T01:36:18.484Z,88.16
2023-11-20T01:38:46.314Z,88.12
2023-11-20T01:41:14.123Z,88.15
2023-11-20T01:43:41.954Z,88.24
2023-11-20T01:46:13.015Z,88.24
2023-11-20T01:48:41.867Z,88.26
2023-11-20T01:51:09.904Z,88.33
2023-11-20T01:53:40.019Z,88.34
2023-11-20T01:56:11.814Z,88.41
2023-11-20T01:58:39.953Z,88.41
2023-11-20T02:01:08.818Z,88.44
2023-11-20T02:03:36.891Z,88.41
2023-11-20T02:06:05.023Z,88.42
2023-11-20T02:08:32.949Z,88.51
2023-11-20T02:11:03.131Z,88.58
2023-11-20T02:13:31.842Z,88.55
2023-11-20T02:15:59.716Z,88.55
2023-11-20T02:18:35.559Z,88.58
2023-11-20T02:21:06.189Z,88.52
2023-11-20T02:23:34.389Z,88.55
2023-11-20T02:26:11.132Z,88.55
2023-11-20T02:28:40.924Z,88.55
2023-11-20T02:31:08.932Z,88.55
2023-11-20T02:33:40.491Z,88.54
2023-11-20T02:36:08.717Z,88.56
2023-11-20T02:38:37.343Z,88.57
2023-11-20T02:41:06.086Z,88.66
2023-11-20T02:43:39.956Z,88.67
2023-11-20T02:46:08.040Z,88.62
2023-11-20T02:48:35.905Z,88.68
2023-11-20T02:51:06.203Z,88.77
2023-11-20T02:53:34.075Z,88.79
2023-11-20T02:56:02.142Z,88.74
2023-11-20T02:58:30.117Z,88.75
2023-11-20T03:00:58.898Z,88.79
2023-11-20T03:03:26.820Z,88.86
2023-11-20T03:05:54.705Z,88.87
2023-11-20T03:08:23.976Z,88.83
2023-11-20T03:10:51.767Z,88.82
2023-11-20T03:13:19.801Z,88.80
2023-11-20T03:15:47.650Z,88.77
2023-11-20T03:18:15.495Z,88.75
2023-11-20T03:20:43.425Z,88.76
2023-11-20T03:23:14.479Z,88.73
2023-11-20T03:25:42.364Z,88.74
2023-11-20T03:28:11.467Z,88.74
2023-11-20T03:30:39.816Z,88.73
2023-11-20T03:33:08.925Z,88.71
2023-11-20T03:35:37.119Z,88.75
2023-11-20T03:38:04.892Z,88.72
2023-11-20T03:40:32.768Z,88.85
2023-11-20T03:43:00.596Z,88.92
2023-11-20T03:45:28.434Z,88.96
2023-11-20T03:47:56.238Z,88.96
2023-11-20T03:50:24.010Z,89.05
2023-11-20T03:52:52.615Z,89.10
2023-11-20T03:55:20.508Z,89.27
2023-11-20T03:57:48.388Z,89.29
2023-11-20T04:00:17.560Z,89.25
2023-11-20T04:02:45.426Z,89.29
2023-11-20T04:05:13.310Z,89.35
2023-11-20T04:07:41.112Z,89.30
2023-11-20T04:10:09.847Z,89.24
2023-11-20T04:12:37.903Z,89.27
2023-11-20T04:15:06.187Z,89.40
2023-11-20T04:17:34.638Z,89.54
2023-11-20T04:20:04.449Z,89.62
2023-11-20T04:22:33.537Z,89.66
2023-11-20T04:25:01.927Z,89.61
2023-11-20T04:27:30.177Z,89.58
2023-11-20T04:29:58.145Z,89.65
2023-11-20T04:32:27.110Z,89.57
2023-11-20T04:34:55.242Z,89.58
2023-11-20T04:37:23.025Z,89.59
2023-11-20T04:39:53.710Z,89.59
2023-11-20T04:42:21.566Z,89.55
2023-11-20T04:44:49.395Z,89.52
2023-11-20T04:47:17.265Z,89.49
2023-11-20T04:49:45.122Z,89.49
2023-11-20T04:52:13.063Z,89.50
2023-11-20T04:54:40.992Z,89.50
2023-11-20T04:57:10.795Z,89.48
2023-11-20T04:59:38.752Z,89.47
2023-11-20T05:02:07.067Z,89.41
2023-11-20T05:04:34.901Z,89.36
2023-11-20T05:07:03.710Z,89.33
2023-11-20T05:09:32.051Z,89.29
2023-11-20T05:12:01.738Z,89.27
2023-11-20T05:14:29.652Z,89.28
2023-11-20T05:16:57.703Z,89.26
2023-11-20T05:19:25.610Z,89.25
2023-11-20T05:21:53.693Z,89.25
2023-11-20T05:24:21.522Z,89.26
2023-11-20T05:26:49.325Z,89.28
2023-11-20T05:29:20.263Z,89.24
2023-11-20T05:31:48.144Z,89.18
2023-11-20T05:34:16.289Z,89.17
2023-11-20T05:36:44.199Z,89.23
2023-11-20T05:39:12.653Z,89.22
2023-11-20T05:41:40.464Z,89.20
2023-11-20T05:44:08.993Z,89.19
2023-11-20T05:46:37.564Z,89.18
2023-11-20T05:49:05.534Z,89.18
2023-11-20T05:51:33.470Z,89.17
2023-11-20T05:54:01.430Z,89.15
2023-11-20T05:56:32.231Z,89.15
2023-11-20T05:59:02.236Z,89.20
2023-11-20T06:01:41.368Z,89.20
2023-11-20T06:04:15.947Z,89.16
2023-11-20T06:06:44.288Z,89.13
2023-11-20T06:09:12.322Z,89.10
2023-11-20T06:11:49.397Z,89.08
2023-11-20T06:14:17.951Z,89.07
2023-11-20T06:16:49.739Z,89.07
2023-11-20T06:19:18.274Z,89.02
2023-11-20T06:21:50.613Z,88.99
2023-11-20T06:24:20.488Z,88.97
2023-11-20T06:26:48.715Z,88.95
2023-11-20T06:29:16.492Z,88.95
2023-11-20T06:31:44.559Z,88.94
2023-11-20T06:34:12.961Z,88.93
2023-11-20T06:36:40.878Z,88.90
2023-11-20T06:39:08.691Z,88.89
2023-11-20T06:41:39.076Z,88.87
2023-11-20T06:44:07.063Z,88.85
2023-11-20T06:46:35.116Z,88.83
2023-11-20T06:49:03.022Z,88.81
2023-11-20T06:51:31.243Z,88.83
2023-11-20T06:53:59.629Z,88.86
2023-11-20T06:56:27.793Z,88.92
2023-11-20T06:58:58.312Z,88.91
2023-11-20T07:01:26.257Z,88.91
2023-11-20T07:03:55.119Z,88.93
2023-11-20T07:06:24.750Z,88.94
2023-11-20T07:08:54.854Z,88.93
2023-11-20T07:11:22.992Z,88.88
2023-11-20T07:13:50.888Z,88.81
2023-11-20T07:16:19.134Z,88.76
2023-11-20T07:18:47.279Z,88.73
2023-11-20T07:21:17.206Z,88.73
2023-11-20T07:23:45.004Z,88.70
2023-11-20T07:26:17.658Z,88.70
2023-11-20T07:28:47.696Z,88.70
2023-11-20T07:31:26.027Z,88.71
2023-11-20T07:33:54.029Z,88.71
2023-11-20T07:36:22.160Z,88.70
2023-11-20T07:38:50.062Z,88.70
2023-11-20T07:41:18.034Z,88.71
2023-11-20T07:43:46.579Z,88.74
2023-11-20T07:46:14.726Z,88.81
2023-11-20T07:48:42.653Z,88.84
2023-11-20T07:51:10.597Z,88.84
2023-11-20T07:53:42.429Z,88.88
2023-11-20T07:56:13.423Z,89.00
2023-11-20T07:58:44.666Z,89.04
2023-11-20T08:01:12.550Z,89.04
2023-11-20T08:03:40.802Z,89.10
2023-11-20T08:06:17.159Z,89.08
2023-11-20T08:08:50.061Z,89.12
2023-11-20T08:11:18.676Z,89.20
2023-11-20T08:13:47.684Z,89.21
2023-11-20T08:16:15.862Z,89.21
2023-11-20T08:18:43.773Z,89.23
2023-11-20T08:21:11.675Z,89.27
2023-11-20T08:23:39.852Z,89.28
2023-11-20T08:26:07.801Z,89.29
2023-11-20T08:28:35.617Z,89.34
2023-11-20T08:31:03.534Z,89.33
2023-11-20T08:33:31.485Z,89.31
2023-11-20T08:35:59.446Z,89.34
2023-11-20T08:38:27.273Z,89.37
2023-11-20T08:40:55.242Z,89.34
2023-11-20T08:43:24.380Z,89.30
2023-11-20T08:46:03.280Z,89.30
2023-11-20T08:48:36.954Z,89.35
2023-11-20T08:51:09.066Z,89.34
2023-11-20T08:53:37.003Z,89.34
2023-11-20T08:56:05.984Z,89.35
2023-11-20T08:58:33.795Z,89.37
2023-11-20T09:01:01.751Z,89.32
2023-11-20T09:03:29.602Z,89.34
2023-11-20T09:05:59.166Z,89.32
2023-11-20T09:08:27.528Z,89.37
2023-11-20T09:10:55.415Z,89.43
2023-11-20T09:13:23.276Z,89.41
2023-11-20T09:15:51.207Z,89.39
2023-11-20T09:18:19.008Z,89.36
2023-11-20T09:20:46.949Z,89.37
2023-11-20T09:23:14.905Z,89.34
2023-11-20T09:25:43.888Z,89.31
2023-11-20T09:28:11.796Z,89.33
2023-11-20T09:30:39.705Z,89.38
2023-11-20T09:33:07.571Z,89.41
2023-11-20T09:35:37.406Z,89.40
2023-11-20T09:38:06.631Z,89.37
2023-11-20T09:40:34.591Z,89.33
2023-11-20T09:43:03.122Z,89.31
2023-11-20T09:45:42.881Z,89.27
2023-11-20T09:48:19.567Z,89.22
2023-11-20T09:51:02.816Z,89.21
2023-11-20T09:53:39.385Z,89.19
2023-11-20T09:56:12.591Z,89.18
2023-11-20T09:58:43.074Z,89.15
2023-11-20T10:01:14.345Z,89.17
2023-11-20T10:03:44.806Z,89.13
2023-11-20T10:06:20.719Z,89.10
2023-11-20T10:08:52.364Z,89.04
2023-11-20T10:11:23.404Z,88.99
2023-11-20T10:13:52.852Z,88.99
2023-11-20T10:16:24.457Z,89.06
2023-11-20T10:18:55.723Z,89.03
2023-11-20T10:21:23.818Z,89.01
2023-11-20T10:23:53.852Z,88.99
2023-11-20T10:26:22.807Z,89.00
2023-11-20T10:28:50.999Z,88.96
2023-11-20T10:31:19.008Z,88.94
2023-11-20T10:33:47.137Z,88.92
2023-11-20T10:36:18.096Z,88.91
2023-11-20T10:38:46.399Z,88.89
2023-11-20T10:41:14.496Z,88.85
2023-11-20T10:43:42.968Z,88.84
2023-11-20T10:46:11.440Z,88.81
2023-11-20T10:48:40.325Z,88.75
2023-11-20T10:51:11.341Z,88.65
2023-11-20T10:53:43.901Z,88.55
2023-11-20T10:56:13.990Z,88.49
2023-11-20T10:58:45.182Z,88.45
2023-11-20T11:03:38.540Z,88.42
2023-11-20T11:06:12.222Z,88.38
2023-11-20T11:08:46.695Z,88.41
2023-11-20T11:11:17.744Z,88.53
2023-11-20T11:13:49.057Z,88.57
2023-11-20T11:16:26.594Z,88.59
2023-11-20T11:19:02.957Z,88.65
2023-11-20T11:21:39.812Z,88.73
2023-11-20T11:24:14.716Z,88.77
2023-11-20T11:26:53.590Z,88.77
2023-11-20T11:29:27.065Z,88.77
2023-11-20T11:32:07.468Z,88.78
2023-11-20T11:34:53.953Z,88.82
2023-11-20T11:37:39.145Z,88.87
2023-11-20T11:40:45.156Z,88.84
2023-11-20T11:43:45.744Z,88.86
2023-11-20T11:46:13.572Z,88.90
2023-11-20T11:48:42.005Z,88.94
2023-11-20T11:51:26.709Z,88.90
2023-11-20T11:54:17.105Z,88.87
2023-11-20T11:56:51.031Z,88.90
2023-11-20T11:59:27.774Z,88.88
2023-11-20T12:01:55.688Z,88.91
2023-11-20T12:04:58.081Z,88.94
2023-11-20T12:07:40.310Z,88.89
2023-11-20T12:10:12.947Z,88.80
2023-11-20T12:12:52.377Z,88.73
2023-11-20T12:16:02.848Z,88.73
2023-11-20T12:18:37.191Z,88.74
2023-11-20T12:21:05.650Z,88.69
2023-11-20T12:23:43.986Z,88.65
2023-11-20T12:26:13.750Z,88.66
2023-11-20T12:28:42.881Z,88.62
2023-11-20T12:31:12.817Z,88.55
2023-11-20T12:33:44.842Z,88.55
2023-11-20T12:36:13.590Z,88.57
2023-11-20T12:38:47.505Z,88.61
2023-11-20T12:41:17.067Z,88.59
2023-11-20T12:43:45.237Z,88.58
2023-11-20T12:46:18.531Z,88.62
2023-11-20T12:48:48.223Z,88.65
2023-11-20T12:51:16.394Z,88.66
2023-11-20T12:53:45.194Z,88.60
2023-11-20T12:56:15.454Z,88.57
2023-11-20T12:58:44.288Z,88.54
2023-11-20T13:01:12.692Z,88.54
2023-11-20T13:03:42.042Z,88.52
2023-11-20T13:06:12.009Z,88.48
2023-11-20T13:08:40.920Z,88.49
2023-11-20T13:11:12.843Z,88.48
2023-11-20T13:13:42.906Z,88.52
2023-11-20T13:16:17.903Z,88.49
2023-11-20T13:18:50.963Z,88.50
2023-11-20T13:21:27.503Z,88.55
2023-11-20T13:24:01.218Z,88.58
2023-11-20T13:26:29.892Z,88.61
2023-11-20T13:29:01.255Z,88.57
2023-11-20T13:31:36.556Z,88.59
2023-11-20T13:34:08.314Z,88.61
2023-11-20T13:36:39.187Z,88.65
2023-11-20T13:39:20.892Z,88.65
2023-11-20T13:41:49.170Z,88.67
2023-11-20T13:44:16.957Z,88.71
2023-11-20T13:46:44.823Z,88.76
2023-11-20T13:49:15.754Z,88.76
2023-11-20T13:51:44.342Z,88.85
2023-11-20T13:54:12.164Z,88.99
2023-11-20T13:56:40.109Z,89.07
2023-11-20T13:59:10.708Z,89.12
2023-11-20T14:01:40.628Z,89.22
2023-11-20T14:04:11.124Z,89.18
2023-11-20T14:06:40.990Z,89.19
2023-11-20T14:09:08.849Z,89.23
2023-11-20T14:11:37.489Z,89.31
2023-11-20T14:14:06.668Z,89.34
2023-11-20T14:16:34.638Z,89.49
2023-11-20T14:19:02.592Z,89.49
2023-11-20T14:21:32.262Z,89.47
2023-11-20T14:24:00.280Z,89.53
2023-11-20T14:26:34.163Z,89.59
2023-11-20T14:29:04.530Z,89.60
2023-11-20T14:31:32.991Z,89.58
2023-11-20T14:34:01.167Z,89.64
2023-11-20T14:36:29.282Z,89.64
2023-11-20T14:38:59.494Z,89.64
2023-11-20T14:41:28.333Z,89.73
2023-11-20T14:43:56.333Z,89.78
2023-11-20T14:46:24.436Z,89.77
2023-11-20T14:48:52.936Z,89.79
2023-11-20T14:51:22.096Z,89.79
2023-11-20T14:53:50.863Z,89.80
2023-11-20T14:56:19.284Z,89.82
2023-11-20T14:58:47.633Z,89.81
2023-11-20T15:01:16.132Z,89.79
2023-11-20T15:03:44.245Z,89.78
2023-11-20T15:06:15.116Z,89.75
2023-11-20T15:08:43.710Z,89.73
2023-11-20T15:11:11.516Z,89.69
2023-11-20T15:13:39.494Z,89.65
2023-11-20T15:16:07.909Z,89.60
2023-11-20T15:18:38.089Z,89.55
2023-11-20T15:21:07.219Z,89.52
2023-11-20T15:23:35.070Z,89.53
2023-11-20T15:26:03.220Z,89.47
2023-11-20T15:28:31.114Z,89.44
2023-11-20T15:30:59.013Z,89.41
2023-11-20T15:33:26.930Z,89.40
2023-11-20T15:35:56.428Z,89.35
2023-11-20T15:38:24.271Z,89.30
2023-11-20T15:40:52.118Z,89.28
2023-11-20T15:43:20.055Z,89.24
2023-11-20T15:45:53.834Z,89.20
2023-11-20T15:48:22.611Z,89.16
2023-11-20T15:50:50.436Z,89.13
2023-11-20T15:53:18.315Z,89.07
2023-11-20T15:55:46.175Z,89.05
2023-11-20T15:58:14.062Z,89.04
2023-11-20T16:00:41.926Z,89.05
2023-11-20T16:03:09.862Z,89.02
2023-11-20T16:05:37.775Z,88.95
2023-11-20T16:08:06.109Z,88.90
2023-11-20T16:10:34.122Z,88.82
2023-11-20T16:13:04.614Z,88.82
2023-11-20T16:15:32.529Z,88.74
2023-11-20T16:18:00.403Z,88.69
2023-11-20T16:20:30.330Z,88.69
2023-11-20T16:22:58.533Z,88.68
2023-11-20T16:25:36.640Z,88.63
2023-11-20T16:28:12.033Z,88.54
2023-11-20T16:30:39.998Z,88.50
2023-11-20T16:33:08.190Z,88.44
2023-11-20T16:35:38.410Z,88.38
2023-11-20T16:38:06.453Z,88.43
2023-11-20T16:40:36.210Z,88.40
2023-11-20T16:43:04.193Z,88.35
2023-11-20T16:45:32.016Z,88.25
2023-11-20T16:48:00.152Z,88.20
2023-11-20T16:50:28.121Z,88.17
2023-11-20T16:52:56.016Z,88.14
2023-11-20T16:55:24.313Z,88.16
2023-11-20T16:57:52.432Z,88.16
2023-11-20T17:00:20.772Z,88.16
2023-11-20T17:02:48.941Z,88.12
2023-11-20T17:05:16.980Z,88.15
2023-11-20T17:07:44.929Z,88.18
2023-11-20T17:10:13.187Z,88.24
2023-11-20T17:12:41.983Z,88.37
2023-11-20T17:15:11.268Z,88.44
2023-11-20T17:17:40.966Z,88.54
2023-11-20T17:20:14.617Z,88.62
2023-11-20T17:22:44.768Z,88.69
